createdAt,value
2018-08-11T00:01:25.752Z,3.00
2018-08-11T00:03:54.293Z,1.40
2018-08-11T00:06:21.895Z,1.00
2018-08-11T00:08:49.518Z,3.00
2018-08-11T00:11:18.995Z,3.00
2018-08-11T00:13:46.646Z,3.00
2018-08-11T00:16:14.487Z,1.80
2018-08-11T00:18:42.663Z,1.00
2018-08-11T00:21:10.248Z,3.00
2018-08-11T00:23:37.891Z,3.80
2018-08-11T00:26:05.768Z,2.20
2018-08-11T00:28:34.231Z,4.00
2018-08-11T00:31:02.831Z,3.00
2018-08-11T00:33:31.656Z,3.00
2018-08-11T00:35:59.890Z,2.20
2018-08-11T00:38:27.454Z,0.60
2018-08-11T00:40:55.078Z,2.20
2018-08-11T00:43:22.975Z,3.00
2018-08-11T00:45:50.603Z,3.60
2018-08-11T00:48:18.186Z,1.00
2018-08-11T00:50:45.807Z,3.00
2018-08-11T00:53:14.503Z,3.00
2018-08-11T00:55:42.115Z,3.00
2018-08-11T00:58:09.723Z,1.00
2018-08-11T01:00:38.362Z,0.00
2018-08-11T01:03:06.626Z,3.00
2018-08-11T01:05:34.853Z,0.20
2018-08-11T01:08:02.891Z,2.20
2018-08-11T01:10:30.738Z,0.00
2018-08-11T01:12:58.385Z,3.00
2018-08-11T01:15:26.015Z,3.20
2018-08-11T01:17:53.961Z,3.00
2018-08-11T01:20:21.628Z,3.00
2018-08-11T01:22:49.707Z,1.00
2018-08-11T01:25:17.448Z,3.00
2018-08-11T01:27:45.493Z,3.20
2018-08-11T01:30:15.079Z,2.60
2018-08-11T01:32:42.804Z,3.20
2018-08-11T01:35:11.167Z,1.00
2018-08-11T01:37:40.543Z,3.00
2018-08-11T01:40:10.225Z,3.00
2018-08-11T01:42:37.855Z,3.00
2018-08-11T01:45:05.753Z,0.40
2018-08-11T01:47:36.468Z,2.20
2018-08-11T01:50:04.098Z,3.00
2018-08-11T01:52:31.711Z,1.00
2018-08-11T01:54:59.979Z,3.20
2018-08-11T01:57:27.607Z,4.00
2018-08-11T01:59:55.284Z,3.00
2018-08-11T02:02:22.935Z,8.20
2018-08-11T02:04:51.062Z,6.40
2018-08-11T02:07:18.691Z,5.80
2018-08-11T02:09:46.290Z,4.00
2018-08-11T02:12:13.946Z,6.00
2018-08-11T02:14:41.876Z,4.00
2018-08-11T02:17:10.538Z,3.60
2018-08-11T02:19:38.226Z,3.00
2018-08-11T02:22:05.779Z,1.80
2018-08-11T02:24:33.922Z,2.60
2018-08-11T02:27:01.551Z,3.00
2018-08-11T02:29:29.207Z,3.00
2018-08-11T02:31:56.840Z,4.00
2018-08-11T02:34:25.268Z,3.00
2018-08-11T02:36:52.948Z,3.80
2018-08-11T02:39:20.595Z,3.00
2018-08-11T02:41:48.229Z,4.00
2018-08-11T02:44:16.238Z,5.40
2018-08-11T02:46:43.858Z,3.80
2018-08-11T02:49:11.445Z,3.80
2018-08-11T02:51:39.040Z,3.00
2018-08-11T02:54:06.967Z,3.00
2018-08-11T02:56:35.057Z,3.60
2018-08-11T02:59:02.984Z,4.00
2018-08-11T03:01:33.944Z,4.00
2018-08-11T03:04:01.779Z,3.20
2018-08-11T03:06:29.544Z,3.60
2018-08-11T03:08:57.658Z,4.00
2018-08-11T03:11:25.290Z,1.00
2018-08-11T03:13:52.945Z,3.00
2018-08-11T03:16:20.575Z,0.80
2018-08-11T03:18:48.504Z,1.40
2018-08-11T03:21:16.300Z,1.80
2018-08-11T03:23:43.969Z,3.00
2018-08-11T03:26:11.595Z,3.00
2018-08-11T03:28:39.525Z,1.00
2018-08-11T03:31:07.159Z,0.00
2018-08-11T03:33:34.854Z,0.00
2018-08-11T03:36:02.834Z,1.00
2018-08-11T03:38:30.444Z,1.00
2018-08-11T03:40:58.054Z,0.40
2018-08-11T03:43:26.866Z,0.00
2018-08-11T03:45:54.519Z,1.00
2018-08-11T03:48:22.179Z,1.00
2018-08-11T03:50:50.074Z,0.00
2018-08-11T03:53:17.685Z,3.00
2018-08-11T03:55:45.289Z,1.40
2018-08-11T03:58:12.856Z,1.00
2018-08-11T04:00:41.669Z,1.00
2018-08-11T04:03:09.319Z,3.40
2018-08-11T04:05:40.570Z,3.00
2018-08-11T04:08:08.224Z,3.80
2018-08-11T04:10:35.846Z,3.60
2018-08-11T04:13:03.470Z,2.60
2018-08-11T04:15:31.062Z,3.40
2018-08-11T04:17:58.946Z,3.40
2018-08-11T04:20:26.549Z,3.40
2018-08-11T04:22:54.193Z,3.00
2018-08-11T04:25:21.837Z,3.80
2018-08-11T04:27:49.714Z,3.60
2018-08-11T04:30:17.347Z,1.00
2018-08-11T04:32:45.720Z,3.00
2018-08-11T04:35:13.359Z,3.00
2018-08-11T04:37:41.587Z,1.00
2018-08-11T04:40:09.211Z,3.00
2018-08-11T04:42:36.801Z,3.60
2018-08-11T04:45:04.412Z,1.80
2018-08-11T04:47:32.333Z,1.00
2018-08-11T04:49:59.932Z,1.00
2018-08-11T04:52:27.534Z,3.00
2018-08-11T04:54:55.195Z,1.40
2018-08-11T04:57:23.086Z,1.00
2018-08-11T04:59:51.334Z,1.00
2018-08-11T05:02:18.944Z,0.00
2018-08-11T05:04:46.840Z,1.00
2018-08-11T05:07:14.446Z,0.80
2018-08-11T05:09:42.478Z,3.20
2018-08-11T05:12:10.158Z,3.00
2018-08-11T05:14:38.059Z,1.00
2018-08-11T05:17:05.679Z,2.60
2018-08-11T05:19:33.287Z,1.00
2018-08-11T05:22:00.912Z,1.40
2018-08-11T05:24:28.999Z,2.60
2018-08-11T05:26:56.608Z,3.60
2018-08-11T05:29:25.154Z,1.00
2018-08-11T05:31:54.414Z,3.80
2018-08-11T05:34:22.003Z,3.20
2018-08-11T05:36:49.599Z,3.40
2018-08-11T05:39:17.226Z,6.20
2018-08-11T05:41:44.897Z,3.80
2018-08-11T05:44:13.552Z,4.00
2018-08-11T05:46:41.191Z,4.80
2018-08-11T05:49:09.366Z,6.00
2018-08-11T05:51:36.971Z,7.40
2018-08-11T05:54:04.885Z,4.80
2018-08-11T05:56:32.496Z,7.40
2018-08-11T05:59:00.139Z,9.00
2018-08-11T06:01:27.747Z,12.00
2018-08-11T06:03:55.706Z,9.40
2018-08-11T06:06:23.494Z,9.80
2018-08-11T06:08:51.167Z,15.20
2018-08-11T06:11:19.088Z,9.00
2018-08-11T06:13:46.792Z,9.40
2018-08-11T06:16:14.407Z,10.40
2018-08-11T06:18:42.299Z,11.20
2018-08-11T06:21:10.000Z,13.00
2018-08-11T06:23:37.582Z,12.00
2018-08-11T06:26:05.497Z,9.80
2018-08-11T06:28:33.242Z,12.60
2018-08-11T06:31:00.877Z,12.20
2018-08-11T06:33:28.730Z,9.60
2018-08-11T06:35:56.414Z,10.00
2018-08-11T06:38:24.089Z,11.80
2018-08-11T06:40:52.023Z,10.00
2018-08-11T06:43:19.886Z,9.80
2018-08-11T06:45:47.477Z,9.40
2018-08-11T06:48:15.615Z,8.00
2018-08-11T06:50:43.236Z,9.40
2018-08-11T06:53:10.850Z,10.00
2018-08-11T06:55:38.841Z,11.20
2018-08-11T06:58:06.796Z,11.20
2018-08-11T07:00:34.402Z,9.60
2018-08-11T07:03:02.295Z,10.00
2018-08-11T07:05:33.347Z,15.00
2018-08-11T07:08:00.972Z,13.80
2018-08-11T07:10:29.658Z,13.80
2018-08-11T07:12:57.295Z,13.00
2018-08-11T07:15:25.372Z,14.60
2018-08-11T07:17:53.030Z,12.80
2018-08-11T07:20:20.658Z,12.00
2018-08-11T07:22:48.659Z,15.40
2018-08-11T07:25:16.912Z,14.20
2018-08-11T07:27:44.501Z,10.40
2018-08-11T07:30:12.479Z,14.20
2018-08-11T07:32:40.776Z,13.40
2018-08-11T07:35:08.390Z,10.80
2018-08-11T07:37:36.526Z,15.00
2018-08-11T07:40:04.190Z,12.60
2018-08-11T07:42:31.882Z,12.00
2018-08-11T07:45:00.411Z,9.60
2018-08-11T07:47:28.059Z,10.00
2018-08-11T07:49:55.662Z,10.60
2018-08-11T07:52:23.558Z,9.20
2018-08-11T07:54:51.163Z,5.60
2018-08-11T07:57:18.786Z,6.00
2018-08-11T07:59:47.894Z,10.80
2018-08-11T08:02:15.514Z,11.00
2018-08-11T08:04:43.102Z,7.40
2018-08-11T08:07:11.766Z,9.60
2018-08-11T08:09:40.784Z,7.00
2018-08-11T08:12:08.399Z,9.40
2018-08-11T08:14:36.296Z,6.00
2018-08-11T08:17:03.961Z,7.00
2018-08-11T08:19:31.566Z,3.80
2018-08-11T08:21:59.518Z,7.40
2018-08-11T08:24:27.167Z,6.00
2018-08-11T08:26:54.893Z,4.00
2018-08-11T08:29:23.393Z,4.80
2018-08-11T08:31:51.885Z,5.20
2018-08-11T08:34:19.502Z,7.00
2018-08-11T08:36:48.457Z,9.60
2018-08-11T08:39:16.079Z,7.40
2018-08-11T08:41:46.549Z,11.20
2018-08-11T08:44:14.484Z,9.40
2018-08-11T08:46:43.267Z,7.40
2018-08-11T08:49:10.890Z,8.60
2018-08-11T08:51:39.622Z,8.80
2018-08-11T08:54:09.170Z,9.20
2018-08-11T08:56:36.801Z,9.20
2018-08-11T08:59:05.586Z,6.60
2018-08-11T09:01:33.499Z,6.80
2018-08-11T09:04:01.154Z,10.00
2018-08-11T09:06:29.648Z,6.60
2018-08-11T09:08:57.227Z,7.00
2018-08-11T09:11:25.445Z,11.20
2018-08-11T09:13:53.872Z,10.00
2018-08-11T09:16:21.518Z,9.20
2018-08-11T09:18:49.091Z,6.00
2018-08-11T09:21:16.981Z,8.40
2018-08-11T09:23:45.546Z,9.80
2018-08-11T09:26:13.178Z,8.40
2018-08-11T09:28:41.502Z,9.20
2018-08-11T09:31:09.933Z,8.00
2018-08-11T09:33:37.800Z,10.20
2018-08-11T09:36:05.736Z,7.00
2018-08-11T09:38:34.284Z,7.60
2018-08-11T09:41:02.580Z,4.80
2018-08-11T09:43:30.490Z,8.00
2018-08-11T09:45:59.764Z,8.00
2018-08-11T09:48:28.778Z,7.00
2018-08-11T09:50:56.719Z,7.00
2018-08-11T09:53:24.371Z,8.00
2018-08-11T09:55:52.875Z,4.20
2018-08-11T09:58:20.758Z,4.80
2018-08-11T10:00:54.223Z,4.80
2018-08-11T10:03:21.833Z,4.00
2018-08-11T10:05:49.722Z,4.40
2018-08-11T10:08:17.380Z,5.60
2018-08-11T10:10:45.035Z,4.80
2018-08-11T10:13:12.953Z,5.00
2018-08-11T10:15:40.624Z,4.20
2018-08-11T10:18:08.959Z,4.40
2018-08-11T10:20:38.576Z,6.00
2018-08-11T10:23:06.228Z,7.60
2018-08-11T10:25:33.860Z,7.20
2018-08-11T10:28:01.848Z,6.00
2018-08-11T10:30:30.183Z,6.00
2018-08-11T10:32:57.762Z,6.20
2018-08-11T10:35:25.682Z,5.00
2018-08-11T10:37:53.311Z,6.00
2018-08-11T10:40:21.002Z,6.00
2018-08-11T10:42:49.848Z,5.20
2018-08-11T10:45:17.477Z,6.00
2018-08-11T10:47:45.116Z,6.60
2018-08-11T10:50:13.994Z,6.60
2018-08-11T10:52:42.165Z,5.00
2018-08-11T10:55:09.871Z,6.00
2018-08-11T10:57:37.839Z,7.00
2018-08-11T11:00:05.591Z,4.60
2018-08-11T11:02:34.225Z,5.80
2018-08-11T11:05:02.290Z,6.00
2018-08-11T11:07:29.937Z,5.20
2018-08-11T11:09:57.595Z,7.00
2018-08-11T11:12:25.510Z,8.80
2018-08-11T11:14:53.122Z,6.80
2018-08-11T11:17:20.836Z,6.00
2018-08-11T11:19:48.958Z,6.00
2018-08-11T11:22:16.576Z,7.40
2018-08-11T11:24:44.755Z,7.00
2018-08-11T11:27:12.690Z,6.80
2018-08-11T11:29:40.300Z,5.60
2018-08-11T11:32:08.470Z,6.80
2018-08-11T11:34:37.064Z,4.00
2018-08-11T11:37:04.779Z,4.80
2018-08-11T11:39:34.331Z,6.40
2018-08-11T11:42:03.075Z,4.40
2018-08-11T11:44:30.652Z,6.00
2018-08-11T11:46:58.280Z,4.80
2018-08-11T11:49:27.309Z,4.20
2018-08-11T11:51:54.936Z,2.00
2018-08-11T11:54:23.451Z,5.00
2018-08-11T11:56:52.118Z,8.60
2018-08-11T11:59:19.746Z,7.00
2018-08-11T12:01:48.180Z,7.80
2018-08-11T12:04:16.176Z,9.00
2018-08-11T12:06:43.826Z,3.40
2018-08-11T12:09:12.627Z,8.60
2018-08-11T12:11:40.425Z,6.20
2018-08-11T12:14:08.130Z,6.80
2018-08-11T12:16:37.441Z,3.40
2018-08-11T12:19:05.146Z,3.00
2018-08-11T12:21:32.777Z,6.00
2018-08-11T12:24:01.913Z,4.20
2018-08-11T12:29:03.842Z,4.40
2018-08-11T12:31:32.329Z,3.00
2018-08-11T12:34:00.049Z,6.20
2018-08-11T12:36:29.885Z,4.80
2018-08-11T12:38:58.281Z,6.80
2018-08-11T12:41:27.116Z,7.00
2018-08-11T12:43:55.079Z,6.00
2018-08-11T12:46:22.694Z,7.40
2018-08-11T12:48:50.327Z,6.60
2018-08-11T12:51:19.109Z,7.60
2018-08-11T12:53:46.778Z,8.80
2018-08-11T12:56:14.402Z,7.00
2018-08-11T12:58:42.427Z,7.00
2018-08-11T13:01:10.692Z,7.00
2018-08-11T13:03:38.322Z,6.20
2018-08-11T13:06:06.467Z,6.60
2018-08-11T13:08:34.481Z,5.20
2018-08-11T13:11:02.167Z,8.40
2018-08-11T13:13:31.492Z,7.40
2018-08-11T13:15:59.107Z,6.40
2018-08-11T13:18:28.306Z,5.60
2018-08-11T13:20:58.250Z,6.80
2018-08-11T13:23:26.977Z,7.20
2018-08-11T13:25:55.122Z,6.00
2018-08-11T13:28:24.423Z,3.20
2018-08-11T13:30:54.925Z,8.00
2018-08-11T13:33:22.606Z,6.80
2018-08-11T13:35:50.768Z,6.00
2018-08-11T13:38:18.526Z,5.00
2018-08-11T13:40:46.286Z,6.00
2018-08-11T13:43:14.260Z,6.80
2018-08-11T13:45:43.043Z,6.00
2018-08-11T13:48:10.715Z,6.00
2018-08-11T13:50:44.583Z,6.00
2018-08-11T13:53:13.360Z,4.00
2018-08-11T13:55:41.972Z,6.40
2018-08-11T13:58:10.310Z,8.00
2018-08-11T14:00:37.914Z,7.40
2018-08-11T14:03:07.195Z,4.60
2018-08-11T14:05:35.725Z,4.20
2018-08-11T14:08:03.455Z,5.20
2018-08-11T14:10:32.646Z,4.80
2018-08-11T14:13:01.336Z,5.20
2018-08-11T14:15:28.967Z,6.00
2018-08-11T14:17:56.554Z,6.00
2018-08-11T14:20:25.995Z,4.00
2018-08-11T14:22:53.679Z,6.20
2018-08-11T14:25:22.141Z,4.00
2018-08-11T14:27:50.317Z,5.80
2018-08-11T14:30:18.027Z,4.00
2018-08-11T14:32:46.529Z,5.40
2018-08-11T14:35:14.642Z,6.40
2018-08-11T14:37:43.107Z,6.60
2018-08-11T14:40:12.230Z,4.00
2018-08-11T14:42:42.367Z,7.20
2018-08-11T14:45:10.454Z,6.20
2018-08-11T14:47:38.441Z,9.40
2018-08-11T14:50:06.828Z,10.60
2018-08-11T14:52:34.479Z,8.00
2018-08-11T14:55:02.491Z,7.60
2018-08-11T14:57:30.122Z,10.60
2018-08-11T14:59:57.873Z,10.20
2018-08-11T15:02:25.867Z,11.00
2018-08-11T15:04:53.518Z,10.00
2018-08-11T15:07:21.666Z,9.80
2018-08-11T15:09:49.715Z,10.00
2018-08-11T15:12:18.277Z,8.00
2018-08-11T15:14:45.878Z,10.00
2018-08-11T15:17:13.915Z,8.00
2018-08-11T15:19:41.585Z,9.00
2018-08-11T15:22:09.228Z,7.60
2018-08-11T15:24:37.339Z,8.80
2018-08-11T15:27:05.491Z,9.40
2018-08-11T15:29:33.282Z,11.80
2018-08-11T15:32:03.943Z,10.40
2018-08-11T15:34:31.550Z,7.80
2018-08-11T15:36:59.222Z,7.80
2018-08-11T15:39:27.414Z,12.00
2018-08-11T15:41:55.798Z,12.60
2018-08-11T15:44:23.431Z,9.00
2018-08-11T15:46:52.359Z,12.20
2018-08-11T15:49:23.692Z,9.00
2018-08-11T15:51:51.992Z,10.40
2018-08-11T15:54:21.526Z,11.00
2018-08-11T15:56:49.179Z,11.00
2018-08-11T15:59:16.807Z,10.00
2018-08-11T16:01:45.587Z,10.60
2018-08-11T16:04:13.254Z,12.00
2018-08-11T16:06:40.907Z,14.40
2018-08-11T16:09:09.670Z,11.20
2018-08-11T16:11:37.459Z,14.00
2018-08-11T16:14:05.115Z,12.20
2018-08-11T16:16:33.149Z,14.60
2018-08-11T16:19:01.613Z,16.20
2018-08-11T16:21:29.570Z,14.40
2018-08-11T16:23:57.590Z,13.40
2018-08-11T16:26:26.000Z,16.00
2018-08-11T16:28:53.668Z,16.40
2018-08-11T16:31:21.774Z,14.00
2018-08-11T16:33:49.330Z,18.20
2018-08-11T16:36:16.925Z,16.00
2018-08-11T16:38:46.258Z,10.60
2018-08-11T16:41:14.836Z,18.20
2018-08-11T16:43:42.448Z,16.80
2018-08-11T16:46:11.400Z,17.20
2018-08-11T16:48:39.048Z,16.20
2018-08-11T16:51:06.725Z,17.60
2018-08-11T16:53:34.608Z,10.60
2018-08-11T16:56:02.967Z,14.80
2018-08-11T16:58:30.611Z,17.40
2018-08-11T17:00:59.167Z,19.60
2018-08-11T17:03:27.396Z,16.40
2018-08-11T17:05:55.126Z,13.60
2018-08-11T17:08:23.072Z,14.80
2018-08-11T17:10:50.718Z,15.80
2018-08-11T17:13:18.345Z,16.00
2018-08-11T17:15:47.292Z,12.80
2018-08-11T17:18:15.043Z,16.60
2018-08-11T17:20:44.165Z,16.80
2018-08-11T17:23:13.776Z,16.20
2018-08-11T17:25:41.450Z,18.00
2018-08-11T17:28:09.834Z,18.00
2018-08-11T17:30:38.392Z,16.60
2018-08-11T17:33:06.043Z,18.00
2018-08-11T17:35:33.725Z,15.40
2018-08-11T17:38:02.785Z,14.60
2018-08-11T17:40:31.129Z,14.60
2018-08-11T17:43:00.063Z,18.80
2018-08-11T17:45:30.803Z,14.40
2018-08-11T17:47:59.811Z,16.20
2018-08-11T17:50:27.566Z,14.60
2018-08-11T17:52:55.492Z,14.40
2018-08-11T17:55:23.275Z,13.60
2018-08-11T17:57:51.596Z,15.80
2018-08-11T18:00:19.562Z,15.00
2018-08-11T18:05:29.275Z,14.80
2018-08-11T18:07:56.923Z,8.60
2018-08-11T18:10:25.188Z,14.00
2018-08-11T18:12:52.914Z,13.00
2018-08-11T18:15:20.586Z,14.80
2018-08-11T18:17:48.516Z,14.40
2018-08-11T18:20:20.287Z,15.00
2018-08-11T18:22:47.937Z,16.80
2018-08-11T18:25:16.451Z,13.60
2018-08-11T18:27:45.502Z,13.60
2018-08-11T18:30:13.295Z,15.80
2018-08-11T18:32:41.193Z,17.00
2018-08-11T18:35:09.158Z,13.00
2018-08-11T18:37:36.844Z,14.40
2018-08-11T18:40:05.901Z,14.00
2018-08-11T18:42:33.596Z,16.60
2018-08-11T18:45:01.801Z,15.80
2018-08-11T18:47:29.742Z,14.60
2018-08-11T18:49:57.406Z,13.20
2018-08-11T18:52:25.063Z,16.80
2018-08-11T18:54:53.965Z,13.40
2018-08-11T18:57:22.243Z,17.40
2018-08-11T18:59:50.610Z,13.00
2018-08-11T19:02:18.583Z,13.80
2018-08-11T19:04:50.588Z,13.80
2018-08-11T19:07:18.200Z,13.80
2018-08-11T19:09:46.319Z,19.20
2018-08-11T19:12:16.689Z,15.00
2018-08-11T19:14:44.337Z,16.80
2018-08-11T19:17:13.234Z,13.40
2018-08-11T19:19:40.910Z,16.20
2018-08-11T19:22:09.896Z,13.40
2018-08-11T19:24:37.915Z,16.40
2018-08-11T19:27:06.348Z,13.00
2018-08-11T19:29:34.682Z,12.60
2018-08-11T19:32:03.059Z,12.00
2018-08-11T19:34:30.709Z,16.20
2018-08-11T19:36:59.083Z,15.20
2018-08-11T19:39:27.864Z,15.80
2018-08-11T19:41:55.583Z,13.60
2018-08-11T19:44:23.223Z,16.00
2018-08-11T19:46:52.189Z,13.80
2018-08-11T19:49:20.800Z,15.00
2018-08-11T19:51:48.472Z,16.40
2018-08-11T19:54:17.843Z,13.80
2018-08-11T19:56:45.530Z,13.80
2018-08-11T19:59:13.186Z,18.00
2018-08-11T20:01:41.183Z,17.80
2018-08-11T20:04:08.855Z,12.80
2018-08-11T20:06:36.490Z,15.40
2018-08-11T20:09:04.546Z,16.00
2018-08-11T20:11:32.178Z,16.80
2018-08-11T20:13:59.894Z,18.00
2018-08-11T20:16:27.879Z,15.00
2018-08-11T20:18:55.620Z,14.60
2018-08-11T20:21:23.325Z,13.40
2018-08-11T20:23:51.393Z,17.20
2018-08-11T20:26:19.066Z,19.80
2018-08-11T20:28:46.677Z,18.80
2018-08-11T20:31:14.624Z,18.00
2018-08-11T20:33:42.518Z,18.20
2018-08-11T20:36:11.309Z,18.60
2018-08-11T20:38:42.088Z,15.40
2018-08-11T20:41:11.323Z,15.60
2018-08-11T20:43:41.777Z,14.60
2018-08-11T20:46:11.830Z,12.20
2018-08-11T20:48:40.239Z,13.20
2018-08-11T20:51:08.452Z,15.60
2018-08-11T20:53:36.330Z,10.00
2018-08-11T20:56:04.196Z,15.80
2018-08-11T20:58:32.512Z,14.00
2018-08-11T21:01:00.474Z,16.00
2018-08-11T21:03:34.911Z,15.40
2018-08-11T21:06:02.571Z,13.80
2018-08-11T21:08:31.474Z,18.00
2018-08-11T21:10:59.686Z,18.40
2018-08-11T21:13:27.825Z,15.20
2018-08-11T21:15:55.795Z,17.60
2018-08-11T21:18:24.436Z,17.60
2018-08-11T21:20:52.779Z,20.20
2018-08-11T21:23:20.708Z,17.60
2018-08-11T21:25:48.361Z,13.80
2018-08-11T21:28:16.029Z,13.80
2018-08-11T21:30:43.936Z,17.60
2018-08-11T21:33:11.526Z,15.80
2018-08-11T21:35:39.142Z,15.00
2018-08-11T21:38:07.719Z,17.20
2018-08-11T21:40:35.301Z,18.00
2018-08-11T21:43:02.931Z,13.80
2018-08-11T21:45:31.422Z,15.80
2018-08-11T21:48:00.137Z,18.00
2018-08-11T21:50:29.598Z,18.80
2018-08-11T21:53:01.032Z,15.00
2018-08-11T21:55:28.904Z,16.60
2018-08-11T21:57:56.490Z,15.60
2018-08-11T22:00:26.895Z,15.00
2018-08-11T22:02:58.695Z,15.20
2018-08-11T22:05:27.098Z,16.20
2018-08-11T22:07:55.051Z,16.40
2018-08-11T22:10:23.591Z,17.60
2018-08-11T22:12:51.558Z,14.20
2018-08-11T22:15:21.083Z,15.20
2018-08-11T22:17:49.356Z,13.40
2018-08-11T22:20:17.348Z,15.80
2018-08-11T22:22:47.589Z,15.20
2018-08-11T22:25:15.434Z,16.40
2018-08-11T22:27:45.200Z,13.40
2018-08-11T22:30:12.907Z,16.00
2018-08-11T22:32:40.507Z,16.40
2018-08-11T22:35:08.643Z,14.20
2018-08-11T22:37:36.267Z,17.60
2018-08-11T22:40:04.860Z,14.60
2018-08-11T22:42:33.379Z,12.80
2018-08-11T22:45:01.034Z,11.20
2018-08-11T22:47:29.515Z,12.00
2018-08-11T22:49:57.731Z,14.80
2018-08-11T22:52:26.481Z,15.60
2018-08-11T22:54:55.683Z,13.80
2018-08-11T22:57:23.887Z,12.60
2018-08-11T22:59:51.534Z,15.00
2018-08-11T23:02:19.378Z,15.60
2018-08-11T23:04:47.383Z,21.40
2018-08-11T23:07:14.991Z,15.20
2018-08-11T23:09:42.579Z,13.40
2018-08-11T23:12:10.184Z,15.60
2018-08-11T23:14:37.769Z,16.80
2018-08-11T23:17:05.419Z,13.00
2018-08-11T23:19:34.558Z,15.60
2018-08-11T23:22:02.476Z,15.40
2018-08-11T23:24:30.701Z,16.60
2018-08-11T23:26:58.336Z,15.60
2018-08-11T23:29:27.877Z,19.00
2018-08-11T23:31:55.543Z,14.60
2018-08-11T23:34:24.567Z,15.20
2018-08-11T23:36:56.378Z,16.80
2018-08-11T23:39:24.264Z,9.00
2018-08-11T23:41:51.898Z,13.00
2018-08-11T23:44:19.522Z,15.00
2018-08-11T23:46:48.593Z,12.60
2018-08-11T23:49:16.534Z,17.60
2018-08-11T23:51:45.578Z,15.80
2018-08-11T23:54:13.191Z,16.40
2018-08-11T23:56:42.282Z,16.40
2018-08-11T23:59:10.325Z,17.20
